Time;durP1;ratioP1;P1;durP2;ratioP2;P2;SDS_P1;SDS_P2;PMS_P1;PMS_P2;Temp;Humidity;BMP_temperature;BMP_pressure;BME280_temperature;BME280_humidity;BME280_pressure;Samples;Min_cycle;Max_cycle;Signal;HPM_P1;HPM_P2
2022/07/23 00:00:34;;;;;;;2.22;1.10;;;17.60;99.90;;;;;;5050559;28;20029;-77
2022/07/23 00:03:00;;;;;;;2.55;1.35;;;17.60;99.90;;;;;;5015519;28;20067;-77
2022/07/23 00:05:26;;;;;;;3.10;1.35;;;17.60;99.90;;;;;;5048045;28;20036;-76
2022/07/23 00:07:52;;;;;;;1.65;0.90;;;17.60;99.90;;;;;;5032409;28;20032;-77
2022/07/23 00:10:17;;;;;;;1.75;1.17;;;17.50;99.90;;;;;;5032483;28;20048;-77
2022/07/23 00:12:46;;;;;;;3.03;1.20;;;17.60;99.90;;;;;;5035543;28;20021;-76
2022/07/23 00:15:12;;;;;;;4.95;1.60;;;17.60;99.90;;;;;;5019634;28;20174;-77
2022/07/23 00:17:38;;;;;;;4.43;1.60;;;17.50;99.90;;;;;;5054033;28;20076;-76
2022/07/23 00:20:04;;;;;;;3.60;1.20;;;17.50;99.90;;;;;;5054443;28;20033;-77
2022/07/23 00:22:30;;;;;;;3.15;1.00;;;17.50;99.90;;;;;;5053559;28;20036;-77
2022/07/23 00:24:56;;;;;;;3.70;1.00;;;17.50;99.90;;;;;;5019540;28;20029;-77
2022/07/23 00:27:23;;;;;;;1.70;0.80;;;17.50;99.90;;;;;;5036033;28;20028;-76
2022/07/23 00:29:48;;;;;;;2.10;0.80;;;17.50;99.90;;;;;;5019174;28;20116;-76
2022/07/23 00:32:14;;;;;;;3.20;1.08;;;17.50;99.90;;;;;;5036411;28;20104;-76
2022/07/23 00:34:40;;;;;;;3.20;1.55;;;17.50;99.90;;;;;;5052152;28;20035;-76
2022/07/23 00:37:06;;;;;;;3.83;1.20;;;17.50;99.90;;;;;;5035525;28;20040;-76
2022/07/23 00:39:31;;;;;;;4.15;1.08;;;17.50;99.90;;;;;;5054004;28;20057;-76
2022/07/23 00:41:57;;;;;;;4.05;1.65;;;17.50;99.90;;;;;;5035259;28;20035;-78
2022/07/23 00:44:25;;;;;;;3.50;1.40;;;17.50;99.90;;;;;;5053242;28;20032;-76
2022/07/23 00:46:53;;;;;;;5.35;1.40;;;17.50;99.90;;;;;;5035746;28;20025;-76
2022/07/23 00:49:29;;;;;;;6.03;1.75;;;17.50;99.90;;;;;;5036267;28;20020;-77
2022/07/23 00:51:56;;;;;;;3.15;0.98;;;17.50;99.90;;;;;;5019458;28;20024;-76
2022/07/23 00:54:24;;;;;;;4.53;1.00;;;17.40;99.90;;;;;;5054324;28;20107;-76
2022/07/23 00:56:50;;;;;;;5.75;1.88;;;17.30;99.90;;;;;;5026022;28;20284;-76
2022/07/23 00:59:16;;;;;;;4.38;1.58;;;17.20;99.90;;;;;;5036299;28;20413;-76
2022/07/23 01:01:44;;;;;;;3.58;1.30;;;17.30;99.90;;;;;;5054955;28;20098;-77
2022/07/23 01:04:10;;;;;;;4.68;1.63;;;17.30;99.90;;;;;;5050894;28;20135;-77
2022/07/23 01:06:38;;;;;;;5.85;1.30;;;17.30;99.90;;;;;;5053740;28;20029;-76
2022/07/23 01:09:06;;;;;;;4.20;1.38;;;17.30;99.90;;;;;;5052925;28;20481;-76
2022/07/23 01:11:33;;;;;;;2.85;1.10;;;17.20;99.90;;;;;;5036062;28;20030;-76
2022/07/23 01:13:59;;;;;;;4.90;1.48;;;17.20;99.90;;;;;;5053600;28;20029;-76
2022/07/23 01:16:25;;;;;;;2.38;1.38;;;17.20;99.90;;;;;;5053924;28;20025;-76
2022/07/23 01:18:50;;;;;;;5.15;1.38;;;17.20;99.90;;;;;;5035339;28;20374;-78
2022/07/23 01:21:18;;;;;;;3.05;1.02;;;17.20;99.90;;;;;;5035299;28;20116;-78
2022/07/23 01:23:44;;;;;;;2.38;1.00;;;17.10;99.90;;;;;;5035695;28;20029;-75
2022/07/23 01:26:09;;;;;;;3.15;0.90;;;17.10;99.90;;;;;;5035391;28;20021;-76
2022/07/23 01:28:35;;;;;;;2.85;0.93;;;17.10;99.90;;;;;;5034931;28;20370;-78
2022/07/23 01:31:01;;;;;;;4.78;1.15;;;17.10;99.90;;;;;;5051443;28;20029;-76
2022/07/23 01:33:27;;;;;;;2.25;1.17;;;17.10;99.90;;;;;;5051693;28;20446;-76
2022/07/23 01:35:52;;;;;;;3.28;1.25;;;17.10;99.90;;;;;;5052282;28;20024;-76
2022/07/23 01:38:18;;;;;;;2.20;0.95;;;17.10;99.90;;;;;;5052775;28;20138;-77
2022/07/23 01:40:44;;;;;;;2.45;1.15;;;17.10;99.90;;;;;;5018593;28;20032;-78
2022/07/23 01:43:09;;;;;;;3.95;1.00;;;17.10;99.90;;;;;;5034995;28;20024;-75
2022/07/23 01:45:35;;;;;;;2.97;0.82;;;17.10;99.90;;;;;;5034931;28;20430;-76
2022/07/23 01:48:01;;;;;;;3.25;0.90;;;17.10;99.90;;;;;;5035390;28;20550;-75
2022/07/23 01:50:26;;;;;;;2.67;0.82;;;17.10;99.90;;;;;;5034941;28;20017;-76
2022/07/23 01:52:52;;;;;;;2.53;0.93;;;17.10;99.90;;;;;;5034647;28;20119;-76
2022/07/23 01:55:17;;;;;;;3.42;0.93;;;17.10;99.90;;;;;;5052372;28;20061;-76
2022/07/23 01:57:43;;;;;;;2.08;0.90;;;17.20;99.90;;;;;;5017782;28;20025;-75
2022/07/23 02:00:09;;;;;;;3.22;1.40;;;17.20;99.90;;;;;;5052644;28;20555;-75
2022/07/23 02:02:35;;;;;;;2.42;1.10;;;17.10;99.90;;;;;;5034573;28;20147;-76
2022/07/23 02:05:01;;;;;;;3.38;0.93;;;17.10;99.90;;;;;;5051784;28;20489;-76
2022/07/23 02:07:26;;;;;;;2.08;0.80;;;17.20;99.90;;;;;;5034637;28;20021;-76
2022/07/23 02:09:52;;;;;;;5.90;1.17;;;17.20;99.90;;;;;;5017978;28;20025;-77
2022/07/23 02:12:18;;;;;;;3.25;0.98;;;17.10;99.90;;;;;;5034205;28;20023;-78
2022/07/23 02:14:43;;;;;;;2.45;1.02;;;17.10;99.90;;;;;;5051604;28;20165;-77
2022/07/23 02:17:09;;;;;;;2.65;0.98;;;17.10;99.90;;;;;;5034555;28;20025;-77
2022/07/23 02:19:35;;;;;;;2.92;1.10;;;17.10;99.90;;;;;;5052355;28;20028;-76
2022/07/23 02:22:00;;;;;;;3.30;1.10;;;17.10;99.90;;;;;;5034071;28;20021;-77
2022/07/23 02:24:26;;;;;;;2.83;1.30;;;17.00;99.90;;;;;;5051985;28;20029;-77
2022/07/23 02:26:52;;;;;;;3.28;1.08;;;17.00;99.90;;;;;;5051190;28;20033;-76
2022/07/23 02:29:17;;;;;;;2.03;1.15;;;17.00;99.90;;;;;;5016724;28;20052;-76
2022/07/23 02:31:43;;;;;;;4.30;1.70;;;17.00;99.90;;;;;;5033718;28;20025;-76
2022/07/23 02:34:11;;;;;;;4.55;0.90;;;16.90;99.90;;;;;;5050641;28;20415;-76
2022/07/23 02:36:38;;;;;;;2.70;1.08;;;16.90;99.90;;;;;;5033392;28;20124;-77
2022/07/23 02:39:03;;;;;;;2.55;1.02;;;16.90;99.90;;;;;;5033822;28;20111;-76
2022/07/23 02:41:29;;;;;;;3.85;1.10;;;16.80;99.90;;;;;;5037674;28;20081;-76
2022/07/23 02:43:55;;;;;;;3.35;1.00;;;16.80;99.90;;;;;;5034032;28;20040;-76
2022/07/23 02:46:20;;;;;;;6.70;1.67;;;16.80;99.90;;;;;;5033926;28;20028;-76
2022/07/23 02:48:46;;;;;;;3.60;1.10;;;16.70;99.90;;;;;;5050082;28;20104;-76
2022/07/23 02:51:12;;;;;;;3.17;1.20;;;16.70;99.90;;;;;;5062818;28;20034;-76
2022/07/23 02:53:37;;;;;;;8.15;1.30;;;16.70;99.90;;;;;;5034014;28;20452;-77
2022/07/23 02:56:03;;;;;;;3.20;1.15;;;16.70;99.90;;;;;;5033147;28;20013;-77
2022/07/23 02:58:29;;;;;;;2.50;1.13;;;16.60;99.90;;;;;;5051594;28;20025;-78
2022/07/23 03:00:55;;;;;;;3.45;1.25;;;16.60;99.90;;;;;;5051214;28;20025;-76
2022/07/23 03:03:20;;;;;;;3.53;1.30;;;16.60;99.90;;;;;;5016686;28;20029;-76
2022/07/23 03:05:47;;;;;;;6.75;1.40;;;16.60;99.90;;;;;;5050958;28;20515;-76
2022/07/23 03:08:12;;;;;;;4.47;1.60;;;16.60;99.90;;;;;;5050997;28;20049;-76
2022/07/23 03:10:38;;;;;;;3.47;1.08;;;16.60;99.90;;;;;;5051369;28;20129;-77
2022/07/23 03:13:04;;;;;;;2.67;1.13;;;16.60;99.90;;;;;;5050901;28;20088;-76
2022/07/23 03:15:29;;;;;;;2.35;1.08;;;16.70;99.90;;;;;;5033847;28;20058;-78
2022/07/23 03:17:55;;;;;;;2.83;0.90;;;16.60;99.90;;;;;;5049416;28;20036;-78
2022/07/23 03:20:21;;;;;;;3.08;0.85;;;16.60;99.90;;;;;;5016313;28;20037;-76
2022/07/23 03:22:46;;;;;;;3.38;0.85;;;16.60;99.90;;;;;;5048340;28;20028;-76
2022/07/23 03:25:12;;;;;;;2.33;0.98;;;16.70;99.90;;;;;;5032523;28;20503;-76
2022/07/23 03:27:38;;;;;;;3.30;1.20;;;16.70;99.90;;;;;;5050905;28;20044;-77
2022/07/23 03:30:04;;;;;;;2.95;1.15;;;16.60;99.90;;;;;;5050957;28;20489;-80
2022/07/23 03:32:31;;;;;;;6.20;1.42;;;16.60;99.90;;;;;;5054621;28;20405;-76
2022/07/23 03:34:57;;;;;;;3.42;1.40;;;16.60;99.90;;;;;;5062863;28;20512;-76
2022/07/23 03:37:23;;;;;;;3.38;1.10;;;16.60;99.90;;;;;;5030787;28;20059;-76
2022/07/23 03:39:48;;;;;;;5.10;1.10;;;16.60;99.90;;;;;;5037032;28;20029;-79
2022/07/23 03:42:14;;;;;;;3.60;1.30;;;16.60;99.90;;;;;;5016389;28;20063;-77
2022/07/23 03:44:40;;;;;;;3.38;1.23;;;16.60;99.90;;;;;;5050495;28;20029;-77
2022/07/23 03:47:06;;;;;;;5.28;1.30;;;16.60;99.90;;;;;;5036953;28;20021;-77
2022/07/23 03:49:32;;;;;;;5.45;1.50;;;16.50;99.90;;;;;;5034874;28;20024;-76
2022/07/23 03:51:59;;;;;;;2.60;1.20;;;16.60;99.90;;;;;;5037772;28;20021;-76
2022/07/23 03:54:24;;;;;;;2.97;1.20;;;16.60;99.90;;;;;;5054162;28;20033;-77
2022/07/23 03:56:50;;;;;;;7.22;1.42;;;16.50;99.90;;;;;;5020975;28;20016;-76
2022/07/23 03:59:16;;;;;;;3.78;1.20;;;16.50;99.90;;;;;;5037245;28;20367;-76
2022/07/23 04:01:42;;;;;;;4.38;1.35;;;16.50;99.90;;;;;;5055621;28;20017;-77
2022/07/23 04:04:08;;;;;;;3.65;1.30;;;16.50;99.90;;;;;;5036535;28;20374;-76
2022/07/23 04:06:35;;;;;;;3.97;1.35;;;16.60;99.90;;;;;;5039218;28;20025;-76
2022/07/23 04:09:00;;;;;;;3.42;1.30;;;16.60;99.90;;;;;;5021078;28;20029;-78
2022/07/23 04:11:26;;;;;;;4.85;1.70;;;16.60;99.90;;;;;;5036608;28;20027;-76
2022/07/23 04:13:52;;;;;;;3.78;1.60;;;16.70;99.90;;;;;;5036675;28;20025;-76
2022/07/23 04:16:18;;;;;;;5.72;1.95;;;16.70;99.90;;;;;;5037107;28;20021;-76
2022/07/23 04:18:43;;;;;;;5.38;1.60;;;16.80;99.90;;;;;;5036869;28;20021;-76
2022/07/23 04:21:09;;;;;;;3.88;1.50;;;16.90;99.90;;;;;;5054351;28;20480;-76
2022/07/23 04:23:35;;;;;;;4.88;1.98;;;16.90;99.90;;;;;;5036107;28;20040;-77
2022/07/23 04:26:00;;;;;;;3.00;1.40;;;16.90;99.90;;;;;;5052717;28;20161;-76
2022/07/23 04:28:26;;;;;;;4.72;1.80;;;16.90;99.90;;;;;;5054164;28;20473;-77
2022/07/23 04:30:52;;;;;;;4.18;1.45;;;16.90;99.90;;;;;;5036154;28;20032;-76
2022/07/23 04:33:17;;;;;;;3.15;1.20;;;16.90;99.90;;;;;;5053327;28;20527;-77
2022/07/23 04:35:43;;;;;;;5.10;1.50;;;17.00;99.90;;;;;;5056805;28;20029;-77
2022/07/23 04:38:09;;;;;;;3.58;1.30;;;17.00;99.90;;;;;;5019250;28;20039;-76
2022/07/23 04:40:34;;;;;;;6.63;1.80;;;16.90;99.90;;;;;;5052094;28;20060;-76
2022/07/23 04:43:00;;;;;;;5.57;1.52;;;16.80;99.90;;;;;;5054036;28;20025;-77
2022/07/23 04:45:26;;;;;;;5.60;2.00;;;16.90;99.90;;;;;;5039461;28;20035;-77
2022/07/23 04:47:51;;;;;;;4.57;1.83;;;16.70;99.90;;;;;;5036511;28;20108;-78
2022/07/23 04:50:21;;;;;;;7.53;2.30;;;16.70;99.90;;;;;;5052439;28;20017;-76
2022/07/23 04:52:50;;;;;;;6.50;2.22;;;16.70;99.90;;;;;;5052374;28;20032;-76
2022/07/23 04:55:16;;;;;;;6.00;2.63;;;16.70;99.90;;;;;;5050184;28;20025;-77
2022/07/23 04:57:42;;;;;;;5.10;2.08;;;16.70;99.90;;;;;;5018860;28;20028;-78
2022/07/23 05:00:09;;;;;;;2.33;1.60;;;16.70;99.90;;;;;;5052846;28;20051;-76
2022/07/23 05:02:35;;;;;;;6.68;1.95;;;16.70;99.90;;;;;;5035242;28;20056;-76
2022/07/23 05:05:00;;;;;;;4.55;1.63;;;16.60;99.90;;;;;;5052180;28;20091;-76
2022/07/23 05:07:26;;;;;;;3.50;1.42;;;16.60;99.90;;;;;;5035870;28;20021;-76
2022/07/23 05:09:52;;;;;;;3.17;1.00;;;16.60;99.90;;;;;;5019569;28;20042;-76
2022/07/23 05:12:17;;;;;;;3.78;1.00;;;16.70;99.90;;;;;;5035753;28;20029;-76
2022/07/23 05:14:43;;;;;;;2.35;1.20;;;16.70;99.90;;;;;;5038400;28;20562;-76
2022/07/23 05:17:09;;;;;;;3.13;1.20;;;16.70;99.90;;;;;;5053289;28;20037;-75
2022/07/23 05:19:35;;;;;;;4.10;1.25;;;16.70;99.90;;;;;;5054651;28;20029;-77
2022/07/23 05:22:01;;;;;;;3.20;1.17;;;16.70;99.90;;;;;;5055802;28;20029;-77
2022/07/23 05:24:26;;;;;;;1.65;0.95;;;16.70;99.90;;;;;;5037742;28;20036;-77
2022/07/23 05:26:52;;;;;;;2.70;1.35;;;16.80;99.90;;;;;;5053730;28;20013;-77
2022/07/23 05:29:18;;;;;;;2.45;0.90;;;16.80;99.90;;;;;;5053648;28;20100;-77
2022/07/23 05:31:44;;;;;;;1.73;1.15;;;16.80;99.90;;;;;;5037985;28;20029;-77
2022/07/23 05:34:10;;;;;;;2.53;1.30;;;16.80;99.90;;;;;;5054465;28;20067;-76
2022/07/23 05:36:35;;;;;;;2.92;1.20;;;16.80;99.90;;;;;;5054403;28;20056;-76
2022/07/23 05:39:01;;;;;;;4.38;1.33;;;16.80;99.90;;;;;;5055691;28;20029;-76
2022/07/23 05:41:27;;;;;;;2.67;0.88;;;16.80;99.90;;;;;;5038006;28;20057;-76
2022/07/23 05:43:53;;;;;;;2.38;0.95;;;16.90;99.90;;;;;;5041129;28;20036;-77
2022/07/23 05:46:18;;;;;;;1.73;1.00;;;16.90;99.90;;;;;;5038146;28;20032;-77
2022/07/23 05:48:49;;;;;;;3.70;1.10;;;16.90;99.90;;;;;;5036127;28;20060;-77
2022/07/23 05:51:19;;;;;;;2.67;1.00;;;16.90;99.90;;;;;;5054415;28;20021;-76
2022/07/23 05:53:45;;;;;;;1.52;1.10;;;16.90;99.90;;;;;;5055162;28;20290;-77
2022/07/23 05:56:11;;;;;;;4.78;1.13;;;17.00;99.90;;;;;;5037128;28;20013;-76
2022/07/23 05:58:36;;;;;;;1.67;0.95;;;17.00;99.90;;;;;;5052381;28;20196;-76
2022/07/23 06:01:02;;;;;;;2.08;1.02;;;17.00;99.90;;;;;;5054397;28;20103;-76
2022/07/23 06:03:28;;;;;;;2.25;1.08;;;17.00;99.90;;;;;;5037468;28;20025;-76
2022/07/23 06:05:54;;;;;;;3.08;1.30;;;17.00;99.90;;;;;;5037646;28;20048;-75
2022/07/23 06:08:20;;;;;;;3.30;1.10;;;16.90;99.90;;;;;;5018147;28;20400;-76
2022/07/23 06:10:46;;;;;;;2.95;0.90;;;17.00;99.90;;;;;;5035544;28;20021;-76
2022/07/23 06:13:11;;;;;;;5.50;1.38;;;17.00;99.90;;;;;;5050923;28;20032;-77
2022/07/23 06:15:37;;;;;;;4.95;1.20;;;17.00;99.90;;;;;;5051284;28;20188;-76
2022/07/23 06:18:03;;;;;;;3.38;1.08;;;17.00;99.90;;;;;;5033669;28;20115;-76
2022/07/23 06:20:29;;;;;;;4.53;1.40;;;17.10;99.90;;;;;;5050073;28;20112;-76
2022/07/23 06:22:54;;;;;;;4.63;1.67;;;17.10;99.90;;;;;;5051322;28;20032;-76
2022/07/23 06:25:20;;;;;;;2.83;1.10;;;17.20;99.90;;;;;;5033342;28;20075;-76
2022/07/23 06:27:47;;;;;;;3.65;1.40;;;17.20;99.90;;;;;;5034174;28;20071;-76
2022/07/23 06:30:13;;;;;;;1.67;1.10;;;17.30;99.90;;;;;;5033336;28;20017;-76
2022/07/23 06:32:39;;;;;;;3.90;1.02;;;17.40;99.90;;;;;;5033181;28;20442;-77
2022/07/23 06:35:05;;;;;;;2.10;1.30;;;17.40;99.90;;;;;;5050566;28;20033;-77
2022/07/23 06:37:31;;;;;;;3.38;1.38;;;17.40;99.90;;;;;;5033086;28;20029;-77
2022/07/23 06:39:56;;;;;;;2.90;1.40;;;17.40;99.90;;;;;;5051158;28;20036;-76
2022/07/23 06:42:22;;;;;;;3.97;1.50;;;17.50;99.90;;;;;;5050612;28;20025;-76
2022/07/23 06:44:48;;;;;;;2.95;1.33;;;17.40;99.90;;;;;;5050759;28;20074;-76
2022/07/23 06:47:13;;;;;;;3.35;1.27;;;17.50;99.90;;;;;;5051297;28;20021;-76
2022/07/23 06:49:41;;;;;;;2.90;1.35;;;17.50;99.90;;;;;;5052337;28;20033;-76
2022/07/23 06:52:07;;;;;;;4.75;1.35;;;17.60;99.90;;;;;;5033156;28;20025;-77
2022/07/23 06:54:33;;;;;;;3.08;1.25;;;17.60;99.90;;;;;;5049575;28;20021;-77
2022/07/23 06:56:59;;;;;;;1.80;1.27;;;17.70;99.90;;;;;;5017274;28;20029;-76
2022/07/23 06:59:24;;;;;;;3.00;1.50;;;17.70;99.90;;;;;;5050290;28;20109;-77
2022/07/23 07:01:50;;;;;;;2.58;1.10;;;17.80;99.90;;;;;;5050820;28;20043;-76
2022/07/23 07:04:16;;;;;;;4.25;1.48;;;17.80;99.90;;;;;;5030840;28;20035;-75
2022/07/23 07:06:41;;;;;;;1.73;0.93;;;17.80;99.90;;;;;;5051063;28;20025;-76
2022/07/23 07:09:07;;;;;;;3.65;0.95;;;17.70;99.90;;;;;;5050610;28;20100;-75
2022/07/23 07:11:33;;;;;;;1.67;0.90;;;17.70;99.90;;;;;;5050499;28;20025;-76
2022/07/23 07:13:58;;;;;;;2.05;0.80;;;17.60;99.90;;;;;;5032493;28;20033;-76
2022/07/23 07:16:24;;;;;;;2.35;1.13;;;17.60;99.90;;;;;;5050120;28;20029;-76
2022/07/23 07:18:50;;;;;;;1.55;0.60;;;17.60;99.90;;;;;;5049547;28;20198;-75
2022/07/23 07:21:15;;;;;;;2.47;1.00;;;17.60;99.90;;;;;;5032198;28;20028;-75
2022/07/23 07:23:41;;;;;;;2.70;0.80;;;17.60;99.90;;;;;;5049915;28;20523;-76
2022/07/23 07:26:07;;;;;;;2.13;0.90;;;17.50;99.90;;;;;;5032346;28;20038;-75
2022/07/23 07:28:32;;;;;;;3.83;0.80;;;17.40;99.90;;;;;;5050232;28;20029;-76
2022/07/23 07:30:58;;;;;;;1.83;0.82;;;17.40;99.90;;;;;;5049903;28;20025;-76
2022/07/23 07:33:24;;;;;;;2.58;0.70;;;17.30;99.90;;;;;;5032352;28;20053;-76
2022/07/23 07:35:49;;;;;;;3.30;0.70;;;17.40;99.90;;;;;;5049844;28;20029;-75
2022/07/23 07:38:15;;;;;;;1.88;0.75;;;17.40;99.90;;;;;;5032417;28;20458;-75
2022/07/23 07:40:41;;;;;;;1.17;0.60;;;17.60;99.90;;;;;;5050435;28;20075;-77
2022/07/23 07:43:07;;;;;;;1.00;0.57;;;17.60;99.90;;;;;;5031990;28;20025;-76
2022/07/23 07:45:32;;;;;;;2.55;0.80;;;17.70;99.90;;;;;;5031757;28;20021;-76
2022/07/23 07:47:58;;;;;;;2.60;0.70;;;17.70;99.90;;;;;;5033128;28;20432;-76
2022/07/23 07:50:24;;;;;;;2.50;0.88;;;17.60;99.90;;;;;;5032600;28;20499;-76
2022/07/23 07:52:50;;;;;;;2.55;0.70;;;17.70;99.90;;;;;;5050506;28;20031;-76
2022/07/23 07:55:16;;;;;;;1.70;0.77;;;17.90;99.90;;;;;;5031786;28;20021;-77
2022/07/23 07:57:42;;;;;;;5.70;0.70;;;17.90;99.90;;;;;;5031944;28;20075;-76
2022/07/23 08:00:10;;;;;;;2.03;0.90;;;18.00;99.90;;;;;;5032243;28;20051;-76
2022/07/23 08:02:46;;;;;;;2.08;0.88;;;18.10;99.90;;;;;;5050083;28;20029;-76
2022/07/23 08:05:12;;;;;;;7.07;1.00;;;17.90;99.90;;;;;;5049893;28;20025;-76
2022/07/23 08:07:39;;;;;;;14.25;7.57;;;17.90;99.90;;;;;;5016194;28;20013;-76
2022/07/23 08:10:07;;;;;;;12.25;7.70;;;18.00;99.90;;;;;;5036127;28;20519;-76
2022/07/23 08:12:41;;;;;;;9.43;4.53;;;18.10;99.90;;;;;;5049726;28;20107;-77
2022/07/23 08:15:07;;;;;;;5.90;1.48;;;18.30;99.90;;;;;;5031864;28;20033;-77
2022/07/23 08:17:33;;;;;;;3.15;0.90;;;18.20;99.90;;;;;;5049256;28;20431;-77
2022/07/23 08:19:59;;;;;;;2.50;0.60;;;18.00;99.90;;;;;;5032223;28;20025;-77
2022/07/23 08:22:24;;;;;;;4.45;0.70;;;17.60;99.90;;;;;;5048667;28;20029;-77
2022/07/23 08:24:50;;;;;;;2.13;0.90;;;17.40;99.90;;;;;;5031794;28;20050;-76
2022/07/23 08:27:16;;;;;;;8.50;1.88;;;17.40;99.90;;;;;;5032677;28;20096;-77
2022/07/23 08:29:41;;;;;;;5.18;1.20;;;17.40;99.90;;;;;;5049684;28;20036;-76
2022/07/23 08:32:07;;;;;;;3.17;0.88;;;17.40;99.90;;;;;;5033126;28;20026;-76
2022/07/23 08:34:33;;;;;;;1.50;0.70;;;17.40;99.90;;;;;;5053513;28;20032;-77
2022/07/23 08:36:58;;;;;;;3.50;0.75;;;17.50;99.90;;;;;;5053600;28;20627;-76
2022/07/23 08:39:24;;;;;;;2.88;0.80;;;17.70;99.90;;;;;;5035889;28;20025;-76
2022/07/23 08:41:50;;;;;;;1.13;0.65;;;17.70;99.90;;;;;;5052840;28;20029;-78
2022/07/23 08:44:16;;;;;;;1.27;0.60;;;17.80;99.90;;;;;;5041083;28;20020;-78
2022/07/23 08:46:43;;;;;;;1.60;0.65;;;17.90;99.90;;;;;;5040840;28;20031;-78
2022/07/23 08:49:09;;;;;;;3.45;0.60;;;18.10;99.90;;;;;;5042277;28;20032;-76
2022/07/23 08:51:35;;;;;;;1.80;0.50;;;18.20;99.90;;;;;;5053613;28;20131;-76
2022/07/23 08:54:01;;;;;;;0.88;0.43;;;18.40;99.90;;;;;;5034634;28;20088;-76
2022/07/23 08:56:27;;;;;;;1.17;0.50;;;18.50;99.90;;;;;;5035042;28;20431;-76
2022/07/23 08:58:55;;;;;;;9.93;1.63;;;18.70;99.90;;;;;;5053589;28;20028;-76
2022/07/23 09:01:21;;;;;;;10.85;0.90;;;18.70;99.90;;;;;;5051789;28;20051;-77
2022/07/23 09:03:47;;;;;;;1.35;0.50;;;18.70;99.90;;;;;;5052117;28;20025;-77
2022/07/23 09:06:12;;;;;;;1.33;0.65;;;18.80;99.90;;;;;;5052839;28;20021;-77
2022/07/23 09:08:43;;;;;;;1.20;0.70;;;18.80;99.90;;;;;;5052626;28;20112;-77
2022/07/23 09:11:16;;;;;;;0.85;0.47;;;18.90;99.90;;;;;;5053279;28;20028;-77
2022/07/23 09:13:49;;;;;;;1.27;0.50;;;19.00;99.90;;;;;;5034763;28;20132;-77
2022/07/23 09:16:27;;;;;;;0.35;0.30;;;19.20;99.90;;;;;;5018230;28;20021;-77
2022/07/23 09:18:55;;;;;;;0.90;0.40;;;19.30;99.90;;;;;;5035347;28;20021;-76
2022/07/23 09:21:22;;;;;;;2.63;0.70;;;19.30;99.90;;;;;;5052588;28;20025;-76
2022/07/23 09:24:03;;;;;;;2.03;0.98;;;19.40;99.90;;;;;;5052711;28;20025;-77
2022/07/23 09:26:36;;;;;;;1.98;0.60;;;19.30;99.90;;;;;;5034864;28;20021;-77
2022/07/23 09:29:19;;;;;;;1.23;0.50;;;19.40;99.90;;;;;;5052666;28;20376;-78
2022/07/23 09:31:51;;;;;;;0.85;0.60;;;19.40;99.90;;;;;;5049845;28;20504;-77
2022/07/23 09:34:18;;;;;;;1.48;0.52;;;19.50;99.90;;;;;;5052269;28;20404;-77
2022/07/23 09:36:45;;;;;;;1.02;0.57;;;19.50;99.90;;;;;;5052437;28;20029;-77
2022/07/23 09:39:12;;;;;;;2.70;0.80;;;19.50;99.90;;;;;;5005185;28;20603;-76
2022/07/23 09:41:44;;;;;;;1.50;0.57;;;19.50;99.90;;;;;;5053247;28;20174;-76
2022/07/23 09:44:18;;;;;;;3.13;0.70;;;19.30;99.90;;;;;;5053360;28;20058;-77
2022/07/23 09:46:46;;;;;;;2.67;0.70;;;19.30;99.90;;;;;;5052284;28;20029;-77
2022/07/23 09:49:21;;;;;;;3.33;0.68;;;19.30;99.90;;;;;;5052306;28;20076;-76
2022/07/23 09:51:55;;;;;;;2.05;0.43;;;19.20;99.90;;;;;;5053417;28;20032;-77
2022/07/23 09:54:33;;;;;;;1.77;0.70;;;19.10;99.90;;;;;;5033940;28;20178;-77
2022/07/23 09:57:05;;;;;;;2.38;0.77;;;19.10;99.90;;;;;;5033753;28;20112;-77
2022/07/23 09:59:34;;;;;;;3.60;0.73;;;19.30;99.90;;;;;;5034697;28;20037;-77
2022/07/23 10:02:00;;;;;;;2.28;0.93;;;19.30;99.90;;;;;;5051658;28;20033;-77
2022/07/23 10:04:28;;;;;;;1.50;0.40;;;19.40;99.90;;;;;;5051779;28;20032;-76
2022/07/23 10:06:57;;;;;;;3.40;0.70;;;19.30;99.90;;;;;;5034095;28;20108;-77
2022/07/23 10:09:32;;;;;;;1.85;0.55;;;19.10;99.90;;;;;;5050572;28;20021;-77
2022/07/23 10:14:35;;;;;;;2.47;0.70;;;19.00;99.90;;;;;;5051997;28;20021;-77
2022/07/23 10:17:04;;;;;;;2.03;0.40;;;18.90;99.90;;;;;;5052067;28;20331;-77
2022/07/23 10:19:30;;;;;;;2.00;1.58;;;19.10;99.90;;;;;;5016319;28;20040;-77
2022/07/23 10:22:00;;;;;;;1.80;0.63;;;19.20;99.90;;;;;;5017312;28;20029;-77
2022/07/23 10:24:44;;;;;;;2.20;0.50;;;19.40;99.90;;;;;;5051708;28;20032;-77
2022/07/23 10:27:16;;;;;;;1.95;0.85;;;19.60;99.90;;;;;;5050224;28;20059;-77
2022/07/23 10:30:26;;;;;;;4.93;3.42;;;19.60;99.90;;;;;;5050638;28;20017;-77
2022/07/23 10:33:29;;;;;;;3.03;1.83;;;19.70;99.20;;;;;;4990580;28;20042;-78
2022/07/23 10:36:09;;;;;;;5.07;2.53;;;19.70;99.10;;;;;;4973108;28;20114;-77
2022/07/23 10:38:55;;;;;;;1.02;0.68;;;19.80;99.20;;;;;;4973711;28;20043;-77
2022/07/23 10:41:40;;;;;;;1.98;0.70;;;19.80;99.50;;;;;;4990258;28;20070;-77
2022/07/23 10:44:08;;;;;;;1.23;0.60;;;20.00;99.20;;;;;;4989744;28;20050;-77
2022/07/23 10:46:44;;;;;;;2.10;0.70;;;20.10;99.30;;;;;;4973578;28;20041;-77
2022/07/23 10:49:32;;;;;;;0.60;0.43;;;20.20;98.90;;;;;;4987019;28;20031;-76
2022/07/23 10:52:18;;;;;;;1.08;0.40;;;20.40;98.20;;;;;;4986390;28;20411;-76
2022/07/23 10:54:46;;;;;;;1.52;0.55;;;20.30;98.30;;;;;;4987842;28;20030;-77
2022/07/23 10:57:13;;;;;;;1.40;0.50;;;20.40;98.10;;;;;;4988633;28;20074;-77
2022/07/23 11:00:00;;;;;;;1.58;0.70;;;20.40;98.40;;;;;;4989737;28;20034;-76
2022/07/23 11:02:28;;;;;;;1.73;0.60;;;20.20;98.50;;;;;;4988055;28;20113;-76
2022/07/23 11:05:00;;;;;;;2.05;0.50;;;20.10;99.30;;;;;;4972512;28;20586;-77
2022/07/23 11:07:25;;;;;;;1.10;0.40;;;19.90;98.80;;;;;;4972416;28;20189;-76
2022/07/23 11:09:52;;;;;;;2.30;0.40;;;20.00;99.20;;;;;;5023892;28;20064;-77
2022/07/23 11:12:21;;;;;;;2.05;0.43;;;20.10;98.60;;;;;;5032419;28;20028;-76
2022/07/23 11:15:02;;;;;;;1.38;0.80;;;20.20;97.90;;;;;;5050703;28;20067;-77
2022/07/23 11:17:28;;;;;;;3.20;0.73;;;20.50;98.30;;;;;;5033254;28;20025;-76
2022/07/23 11:20:09;;;;;;;0.77;0.47;;;20.90;98.00;;;;;;5049140;28;20083;-77
2022/07/23 11:22:44;;;;;;;2.30;0.68;;;21.10;97.30;;;;;;5049326;28;20055;-77
2022/07/23 11:25:22;;;;;;;1.42;0.70;;;21.50;96.50;;;;;;5049987;28;20025;-75
2022/07/23 11:27:51;;;;;;;2.00;0.60;;;21.40;95.90;;;;;;5032371;28;20151;-77
2022/07/23 11:30:26;;;;;;;1.70;1.00;;;21.10;95.60;;;;;;5044523;28;20021;-77
2022/07/23 11:32:54;;;;;;;1.05;0.60;;;20.90;96.60;;;;;;5050342;28;20104;-76
2022/07/23 11:35:22;;;;;;;1.15;0.60;;;20.80;96.20;;;;;;5015436;28;20032;-76
2022/07/23 11:37:48;;;;;;;1.30;0.32;;;21.70;95.80;;;;;;5032427;28;20025;-77
2022/07/23 11:40:16;;;;;;;2.47;0.47;;;23.90;92.20;;;;;;5032426;28;20269;-76
2022/07/23 11:42:58;;;;;;;0.50;0.40;;;24.90;86.80;;;;;;5032530;28;20029;-76
2022/07/23 11:45:29;;;;;;;1.77;0.40;;;25.10;80.80;;;;;;5048088;28;20025;-77
2022/07/23 11:47:55;;;;;;;1.25;0.73;;;24.30;82.10;;;;;;5047539;28;20021;-76
2022/07/23 11:50:25;;;;;;;1.90;1.10;;;23.40;86.60;;;;;;5050291;28;20021;-76
2022/07/23 11:52:52;;;;;;;1.25;0.43;;;22.40;90.30;;;;;;5047493;28;20032;-76
2022/07/23 11:55:19;;;;;;;2.58;0.60;;;21.50;92.40;;;;;;5015432;28;20037;-77
2022/07/23 11:57:45;;;;;;;4.60;1.20;;;21.10;93.80;;;;;;5049358;28;20477;-77
2022/07/23 12:00:16;;;;;;;4.05;1.45;;;20.60;94.40;;;;;;5050374;28;20033;-77
2022/07/23 12:02:44;;;;;;;2.28;0.90;;;20.30;96.00;;;;;;5050108;28;20120;-77
2022/07/23 12:05:18;;;;;;;1.75;0.70;;;20.00;97.00;;;;;;5049399;28;20036;-78
2022/07/23 12:07:49;;;;;;;2.90;0.85;;;19.80;97.60;;;;;;5049289;28;20021;-77
2022/07/23 12:10:19;;;;;;;;;;;19.70;98.20;;;;;;5051987;28;20104;-77
2022/07/23 12:12:53;;;;;;;3.45;1.05;;;19.70;98.80;;;;;;5054106;28;19912;-77
2022/07/23 12:15:25;;;;;;;2.47;0.98;;;19.80;98.60;;;;;;5036379;28;20048;-77
2022/07/23 12:17:52;;;;;;;7.78;1.25;;;19.70;98.80;;;;;;5055360;28;20485;-77
2022/07/23 12:20:24;;;;;;;3.70;1.05;;;19.70;99.00;;;;;;5053865;28;20025;-77
2022/07/23 12:22:55;;;;;;;2.28;0.80;;;19.50;99.40;;;;;;5017985;28;20439;-77
2022/07/23 12:25:23;;;;;;;2.67;1.20;;;19.40;99.80;;;;;;5052218;28;20028;-77
2022/07/23 12:28:09;;;;;;;3.00;1.30;;;19.30;99.90;;;;;;5052507;28;20021;-76
2022/07/23 12:30:44;;;;;;;6.00;1.30;;;19.30;99.90;;;;;;5035562;28;20025;-77
2022/07/23 12:33:12;;;;;;;3.95;1.30;;;19.30;99.90;;;;;;5035349;28;20094;-77
2022/07/23 12:35:44;;;;;;;3.40;1.15;;;19.50;99.90;;;;;;5053042;28;20052;-77
2022/07/23 12:38:16;;;;;;;3.20;1.40;;;19.70;99.90;;;;;;5034631;28;20106;-77
2022/07/23 12:40:42;;;;;;;4.20;1.30;;;20.40;99.00;;;;;;5017595;28;20098;-76
2022/07/23 12:43:19;;;;;;;5.10;1.40;;;20.80;98.30;;;;;;5053300;28;20473;-77
2022/07/23 12:45:54;;;;;;;6.07;1.38;;;21.30;97.50;;;;;;5034626;28;20033;-78
2022/07/23 12:48:26;;;;;;;2.85;0.90;;;21.60;97.30;;;;;;5052969;28;20047;-77
2022/07/23 12:50:57;;;;;;;2.15;0.95;;;21.40;96.50;;;;;;5053489;28;20025;-76
2022/07/23 12:53:26;;;;;;;2.50;0.80;;;21.20;96.80;;;;;;5034009;28;20378;-77